Time;durP1;ratioP1;P1;durP2;ratioP2;P2;SDS_P1;SDS_P2;PMS_P1;PMS_P2;Temp;Humidity;BMP_temperature;BMP_pressure;BME280_temperature;BME280_humidity;BME280_pressure;Samples;Min_cycle;Max_cycle;Signal;HPM_P1;HPM_P2
2022/07/13 00:00:34;;;;;;;5.88;1.95;;;20.70;99.90;;;;;;5016103;28;20049;-95
2022/07/13 00:03:00;;;;;;;2.97;1.63;;;20.70;99.90;;;;;;5019271;28;20172;-95
2022/07/13 00:05:25;;;;;;;1.92;1.70;;;20.70;99.90;;;;;;5017430;28;20107;-95
2022/07/13 00:07:51;;;;;;;3.22;1.90;;;20.70;99.90;;;;;;5006973;28;20057;-95
2022/07/13 00:10:17;;;;;;;3.13;1.95;;;21.30;99.90;;;;;;5015756;28;20092;-94
2022/07/13 00:12:43;;;;;;;3.13;1.65;;;20.70;99.90;;;;;;5014578;28;20650;-95
2022/07/13 00:15:09;;;;;;;2.58;1.70;;;20.70;99.90;;;;;;5013302;28;20146;-96
2022/07/13 00:17:35;;;;;;;2.45;2.03;;;20.70;99.90;;;;;;5033801;28;20080;-94
2022/07/13 00:20:01;;;;;;;2.75;2.42;;;20.80;99.90;;;;;;5020522;28;20044;-95
2022/07/13 00:22:29;;;;;;;2.60;1.77;;;20.80;99.90;;;;;;5027963;28;20079;-95
2022/07/13 00:25:01;;;;;;;2.70;2.28;;;20.80;99.90;;;;;;5077190;28;20047;-95
2022/07/13 00:27:27;;;;;;;10.07;2.15;;;20.80;99.90;;;;;;5044381;28;20040;-94
2022/07/13 00:29:53;;;;;;;3.08;1.77;;;22.00;99.90;;;;;;5074323;28;20067;-94
2022/07/13 00:32:18;;;;;;;2.70;1.85;;;20.90;99.90;;;;;;5092857;28;20084;-95
2022/07/13 00:34:44;;;;;;;4.90;1.77;;;20.90;99.90;;;;;;5092955;28;20110;-95
2022/07/13 00:37:09;;;;;;;4.30;2.20;;;20.90;99.90;;;;;;5077809;28;20043;-95
2022/07/13 00:39:35;;;;;;;3.83;1.92;;;20.90;99.90;;;;;;5104375;28;20042;-94
2022/07/13 00:42:01;;;;;;;3.45;2.13;;;21.00;99.90;;;;;;5100588;28;20040;-95
2022/07/13 00:44:29;;;;;;;4.05;2.60;;;20.90;99.90;;;;;;5085716;28;20062;-94
2022/07/13 00:46:55;;;;;;;2.25;1.92;;;20.90;99.90;;;;;;5083841;28;20040;-96
2022/07/13 00:49:23;;;;;;;8.98;2.08;;;20.90;99.90;;;;;;5100401;28;20038;-96
2022/07/13 00:51:50;;;;;;;4.75;1.98;;;20.90;99.90;;;;;;5098042;28;20035;-95
2022/07/13 00:54:19;;;;;;;3.08;2.55;;;20.90;99.90;;;;;;5091827;28;20039;-94
2022/07/13 00:56:45;;;;;;;5.05;2.40;;;20.90;99.90;;;;;;5077986;28;20131;-94
2022/07/13 00:59:16;;;;;;;4.63;2.45;;;21.00;99.90;;;;;;5070493;28;20051;-96
2022/07/13 01:01:47;;;;;;;3.25;2.60;;;21.00;99.90;;;;;;5121503;28;20051;-96
2022/07/13 01:04:14;;;;;;;2.78;1.92;;;20.80;99.90;;;;;;5092353;28;20044;-96
2022/07/13 01:06:48;;;;;;;3.25;2.47;;;21.00;99.90;;;;;;5109624;28;20043;-96
2022/07/13 01:09:14;;;;;;;4.95;2.63;;;21.00;99.90;;;;;;5113446;28;20042;-95
2022/07/13 01:11:40;;;;;;;3.38;2.33;;;21.00;99.90;;;;;;5107851;28;20044;-95
2022/07/13 01:14:12;;;;;;;4.38;2.75;;;20.80;99.90;;;;;;5125305;28;20051;-96
2022/07/13 01:16:39;;;;;;;3.85;2.45;;;21.00;99.90;;;;;;5092625;28;20027;-96
2022/07/13 01:19:11;;;;;;;4.40;3.25;;;20.90;99.90;;;;;;5109427;28;20043;-96
2022/07/13 01:22:03;;;;;;;3.45;2.78;;;20.90;99.90;;;;;;5129951;28;20047;-96
2022/07/13 01:24:30;;;;;;;6.72;3.20;;;20.90;99.90;;;;;;5129402;28;20115;-96
2022/07/13 01:26:58;;;;;;;10.43;2.97;;;21.00;99.90;;;;;;5100644;28;20557;-94
2022/07/13 01:29:24;;;;;;;6.35;2.88;;;21.00;99.90;;;;;;5095443;28;20111;-95
2022/07/13 01:31:58;;;;;;;4.05;3.25;;;21.00;99.90;;;;;;5059318;28;20077;-95
2022/07/13 01:34:23;;;;;;;3.75;2.72;;;21.00;99.90;;;;;;5087870;28;20054;-94
2022/07/13 01:36:49;;;;;;;3.70;2.88;;;21.00;99.90;;;;;;5055815;28;20043;-93
2022/07/13 01:39:15;;;;;;;4.95;2.78;;;20.90;99.90;;;;;;5055221;28;20465;-94
2022/07/13 01:41:40;;;;;;;4.55;3.10;;;20.90;99.90;;;;;;5072990;28;20181;-93
2022/07/13 01:44:06;;;;;;;6.43;3.42;;;20.90;99.90;;;;;;5055319;28;20051;-93
2022/07/13 01:46:32;;;;;;;3.75;3.22;;;21.00;99.90;;;;;;5072801;28;20047;-95
2022/07/13 01:48:58;;;;;;;5.60;2.85;;;21.00;99.90;;;;;;5060945;28;20040;-95
2022/07/13 01:51:24;;;;;;;10.52;3.22;;;21.00;99.90;;;;;;5092254;28;20486;-93
2022/07/13 01:53:50;;;;;;;5.30;3.13;;;21.00;99.90;;;;;;5056964;28;20047;-92
2022/07/13 01:56:16;;;;;;;7.47;3.00;;;21.00;99.90;;;;;;5071577;28;20100;-94
2022/07/13 01:58:41;;;;;;;6.90;3.60;;;21.00;99.90;;;;;;5055221;28;20051;-92
2022/07/13 02:01:07;;;;;;;6.65;3.65;;;21.00;99.90;;;;;;5071776;28;20130;-94
2022/07/13 02:03:33;;;;;;;5.25;3.58;;;21.10;99.90;;;;;;5054267;28;20044;-94
2022/07/13 02:05:59;;;;;;;5.38;3.28;;;21.00;99.90;;;;;;5089784;28;20044;-95
2022/07/13 02:08:25;;;;;;;8.98;3.55;;;21.00;99.90;;;;;;5089377;28;20040;-93
2022/07/13 02:10:51;;;;;;;4.22;3.35;;;21.00;99.90;;;;;;5076596;28;20089;-93
2022/07/13 02:13:17;;;;;;;3.92;3.20;;;21.00;99.90;;;;;;5056409;28;20501;-94
2022/07/13 02:15:44;;;;;;;3.90;2.80;;;21.00;99.90;;;;;;5076746;28;20072;-94
2022/07/13 02:18:10;;;;;;;3.88;3.47;;;21.00;99.90;;;;;;5089951;28;20490;-94
2022/07/13 02:20:36;;;;;;;3.65;3.00;;;21.00;99.90;;;;;;5073166;28;20126;-94
2022/07/13 02:23:02;;;;;;;4.32;3.35;;;21.00;99.90;;;;;;5071862;28;20065;-95
2022/07/13 02:25:28;;;;;;;3.97;3.22;;;21.00;99.90;;;;;;5071737;28;20036;-95
2022/07/13 02:27:54;;;;;;;3.50;3.20;;;21.70;99.90;;;;;;5058229;28;20050;-93
2022/07/13 02:30:20;;;;;;;8.07;3.95;;;21.00;99.90;;;;;;5078853;27;20047;-95
2022/07/13 02:32:46;;;;;;;3.50;3.20;;;21.00;99.90;;;;;;5068574;27;20486;-96
2022/07/13 02:35:13;;;;;;;10.20;4.00;;;21.00;99.90;;;;;;5081708;27;20035;-96
2022/07/13 02:37:40;;;;;;;6.78;3.80;;;21.00;99.90;;;;;;5083812;27;20045;-94
2022/07/13 02:40:07;;;;;;;6.32;3.60;;;21.00;99.90;;;;;;5080947;27;20504;-95
2022/07/13 02:42:33;;;;;;;4.72;3.88;;;21.00;99.90;;;;;;5080719;27;20133;-94
2022/07/13 02:45:00;;;;;;;3.88;2.97;;;21.00;99.90;;;;;;5096711;27;20490;-95
2022/07/13 02:47:25;;;;;;;4.40;3.72;;;21.00;99.90;;;;;;5095634;27;20031;-95
2022/07/13 02:49:51;;;;;;;5.90;3.83;;;21.00;99.90;;;;;;5079028;27;20159;-94
2022/07/13 02:52:17;;;;;;;4.20;3.70;;;21.00;99.90;;;;;;5079930;27;20053;-95
2022/07/13 02:54:43;;;;;;;7.63;3.70;;;20.90;99.90;;;;;;5079977;27;20111;-94
2022/07/13 02:57:09;;;;;;;4.03;3.63;;;20.90;99.90;;;;;;5079547;27;20075;-95
2022/07/13 02:59:36;;;;;;;3.60;3.10;;;20.90;99.90;;;;;;5078471;27;20050;-94
2022/07/13 03:02:02;;;;;;;4.35;3.88;;;20.80;99.90;;;;;;5080068;27;20042;-94
2022/07/13 03:04:29;;;;;;;4.30;3.50;;;20.80;99.90;;;;;;5096070;27;20086;-96
2022/07/13 03:06:55;;;;;;;3.53;3.08;;;20.80;99.90;;;;;;5095946;27;20046;-96
2022/07/13 03:09:22;;;;;;;6.93;3.50;;;20.80;99.90;;;;;;5100337;27;20043;-96
2022/07/13 03:11:50;;;;;;;4.13;3.55;;;20.80;99.90;;;;;;5099955;27;20039;-96
2022/07/13 03:14:16;;;;;;;4.25;3.65;;;20.80;99.90;;;;;;5104759;27;20205;-96
2022/07/13 03:16:43;;;;;;;5.15;4.03;;;20.70;99.90;;;;;;5115822;27;20023;-95
2022/07/13 03:19:09;;;;;;;6.43;3.63;;;20.70;99.90;;;;;;5105041;27;20040;-96
2022/07/13 03:21:35;;;;;;;4.78;3.53;;;21.30;99.90;;;;;;5098671;27;20070;-94
2022/07/13 03:24:01;;;;;;;6.15;3.47;;;20.70;99.90;;;;;;5098161;27;20158;-95
2022/07/13 03:26:28;;;;;;;6.72;3.20;;;20.80;99.90;;;;;;5081879;27;20047;-95
2022/07/13 03:28:54;;;;;;;5.03;4.07;;;20.70;99.90;;;;;;5081617;27;20544;-96
2022/07/13 03:31:21;;;;;;;5.05;4.07;;;20.70;99.90;;;;;;5100892;27;20490;-94
2022/07/13 03:33:48;;;;;;;4.30;3.58;;;20.70;99.90;;;;;;5098816;27;20043;-95
2022/07/13 03:36:15;;;;;;;4.10;3.55;;;20.70;99.90;;;;;;5099020;27;20100;-94
2022/07/13 03:38:40;;;;;;;5.80;4.07;;;20.70;99.90;;;;;;5097521;27;20039;-95
2022/07/13 03:41:07;;;;;;;3.67;3.25;;;20.70;99.90;;;;;;5096573;27;20047;-93
2022/07/13 03:43:32;;;;;;;5.20;3.80;;;20.70;99.90;;;;;;5061460;27;20058;-95
2022/07/13 03:46:01;;;;;;;6.40;3.40;;;20.70;99.90;;;;;;5079667;27;20470;-94
2022/07/13 03:48:27;;;;;;;5.30;3.83;;;20.70;99.90;;;;;;5064613;27;20058;-94
2022/07/13 03:50:53;;;;;;;6.35;4.75;;;20.70;99.90;;;;;;5098090;27;20510;-93
2022/07/13 03:53:19;;;;;;;6.63;4.40;;;20.60;99.90;;;;;;5064604;27;20031;-93
2022/07/13 03:55:44;;;;;;;7.38;3.95;;;20.60;99.90;;;;;;5096724;27;20043;-93
2022/07/13 03:58:11;;;;;;;7.25;3.72;;;20.40;99.90;;;;;;5081156;27;20039;-94
2022/07/13 04:00:37;;;;;;;5.80;3.40;;;20.60;99.90;;;;;;5081880;27;20050;-95
2022/07/13 04:03:04;;;;;;;4.63;3.58;;;20.70;99.90;;;;;;5081598;27;20043;-93
2022/07/13 04:05:30;;;;;;;5.15;4.18;;;20.70;99.90;;;;;;5101203;27;20081;-88
2022/07/13 04:07:56;;;;;;;8.38;4.68;;;20.70;99.90;;;;;;5111843;27;20091;-94
2022/07/13 04:10:22;;;;;;;5.28;3.80;;;20.70;99.90;;;;;;5079162;27;20220;-93
2022/07/13 04:12:49;;;;;;;4.18;3.53;;;20.30;99.90;;;;;;5081423;27;20448;-94
2022/07/13 04:15:15;;;;;;;6.07;3.47;;;20.70;99.90;;;;;;5103055;27;20043;-93
2022/07/13 04:17:43;;;;;;;9.82;3.47;;;20.70;99.90;;;;;;5087019;27;20082;-92
2022/07/13 04:20:11;;;;;;;4.93;3.42;;;20.70;99.90;;;;;;5102614;27;20039;-92
2022/07/13 04:22:37;;;;;;;7.53;3.33;;;20.70;99.90;;;;;;5103258;27;20557;-92
2022/07/13 04:25:04;;;;;;;3.15;2.78;;;20.70;99.90;;;;;;5104775;27;20143;-95
2022/07/13 04:27:30;;;;;;;5.25;3.63;;;20.70;99.90;;;;;;5088295;27;20039;-93
2022/07/13 04:29:56;;;;;;;4.15;3.25;;;20.70;99.90;;;;;;5084406;27;20512;-91
2022/07/13 04:32:22;;;;;;;6.53;4.15;;;20.70;99.90;;;;;;5086515;27;20035;-93
2022/07/13 04:34:48;;;;;;;5.00;3.28;;;20.70;99.90;;;;;;5085080;27;20047;-94
2022/07/13 04:37:14;;;;;;;4.50;3.80;;;20.70;99.90;;;;;;5103442;27;20088;-94
2022/07/13 04:39:40;;;;;;;3.80;3.28;;;20.80;99.90;;;;;;5069036;27;20399;-94
2022/07/13 04:42:06;;;;;;;7.32;3.80;;;20.80;99.90;;;;;;5100831;27;20043;-92
2022/07/13 04:44:31;;;;;;;5.32;3.30;;;20.70;99.90;;;;;;5083897;27;20096;-96
2022/07/13 04:46:57;;;;;;;3.78;3.25;;;20.80;99.90;;;;;;5078297;27;20509;-94
2022/07/13 04:49:23;;;;;;;4.65;3.63;;;20.80;99.90;;;;;;5061035;27;20074;-95
2022/07/13 04:51:50;;;;;;;5.03;3.60;;;20.80;99.90;;;;;;5090769;27;20046;-86
2022/07/13 04:54:20;;;;;;;4.13;3.25;;;20.80;99.90;;;;;;5092634;27;20397;-92
2022/07/13 04:56:47;;;;;;;5.07;3.88;;;20.60;99.90;;;;;;5074451;27;20043;-92
2022/07/13 04:59:13;;;;;;;6.63;4.20;;;20.80;99.90;;;;;;5091257;27;20067;-90
2022/07/13 05:01:40;;;;;;;6.35;3.65;;;20.90;99.90;;;;;;5091428;27;20172;-88
2022/07/13 05:04:07;;;;;;;5.28;3.17;;;20.90;99.90;;;;;;5090856;27;20478;-87
2022/07/13 05:06:33;;;;;;;7.57;3.78;;;20.90;99.90;;;;;;5108087;28;20043;-88
2022/07/13 05:08:59;;;;;;;4.45;3.78;;;20.80;99.90;;;;;;5090580;27;20110;-88
2022/07/13 05:11:25;;;;;;;5.53;3.92;;;20.80;99.90;;;;;;5095033;28;20128;-88
2022/07/13 05:13:51;;;;;;;6.40;3.88;;;20.80;99.90;;;;;;5088320;27;20039;-89
2022/07/13 05:16:18;;;;;;;3.90;3.47;;;21.00;99.90;;;;;;5094631;27;20043;-92
2022/07/13 05:18:44;;;;;;;6.40;4.60;;;20.80;99.90;;;;;;5074553;28;20075;-91
2022/07/13 05:21:10;;;;;;;4.72;4.05;;;20.80;99.90;;;;;;5074377;27;20134;-92
2022/07/13 05:23:36;;;;;;;8.68;4.13;;;20.80;99.90;;;;;;5092017;28;20061;-93
2022/07/13 05:26:03;;;;;;;8.73;4.25;;;20.80;99.90;;;;;;5090838;28;20573;-90
2022/07/13 05:28:30;;;;;;;7.40;4.93;;;20.80;99.90;;;;;;5090624;28;20055;-88
2022/07/13 05:30:56;;;;;;;6.15;4.63;;;20.80;99.90;;;;;;5089483;28;20501;-89
2022/07/13 05:33:21;;;;;;;5.95;4.90;;;20.80;99.90;;;;;;5090339;28;20039;-89
2022/07/13 05:35:47;;;;;;;8.02;4.72;;;20.80;99.90;;;;;;5056779;28;20047;-88
2022/07/13 05:38:13;;;;;;;4.93;4.20;;;20.80;99.90;;;;;;5090107;28;20122;-88
2022/07/13 05:40:39;;;;;;;5.30;4.50;;;20.80;99.90;;;;;;5073779;28;20143;-85
2022/07/13 05:43:05;;;;;;;6.13;5.18;;;20.80;99.90;;;;;;5107022;28;20070;-84
2022/07/13 05:45:31;;;;;;;10.10;5.40;;;20.80;99.90;;;;;;5107942;28;20466;-84
2022/07/13 05:47:57;;;;;;;11.55;5.47;;;20.80;99.90;;;;;;5106713;28;20046;-85
2022/07/13 05:50:24;;;;;;;8.07;4.80;;;20.80;99.90;;;;;;5056920;28;20042;-86
2022/07/13 05:52:50;;;;;;;5.75;5.15;;;20.80;99.90;;;;;;5107335;28;20574;-85
2022/07/13 05:55:17;;;;;;;10.55;5.57;;;20.90;99.90;;;;;;5089995;28;20039;-87
2022/07/13 05:57:44;;;;;;;8.55;5.40;;;20.90;99.90;;;;;;5090564;28;20119;-87
2022/07/13 06:00:14;;;;;;;10.18;5.43;;;20.90;99.90;;;;;;5089488;28;20083;-89
2022/07/13 06:02:41;;;;;;;11.38;6.47;;;20.90;99.90;;;;;;5090982;28;20035;-86
2022/07/13 06:05:07;;;;;;;6.05;4.97;;;21.00;99.90;;;;;;5108545;27;20085;-86
2022/07/13 06:07:33;;;;;;;6.85;5.32;;;21.60;99.90;;;;;;5111184;27;20037;-86
2022/07/13 06:10:01;;;;;;;6.38;5.28;;;21.00;99.90;;;;;;5093619;27;20472;-86
2022/07/13 06:12:27;;;;;;;11.70;5.72;;;21.00;99.90;;;;;;5093679;27;20046;-86
2022/07/13 06:14:53;;;;;;;8.55;6.25;;;21.00;99.90;;;;;;5076995;27;20566;-85
2022/07/13 06:17:20;;;;;;;9.00;6.45;;;21.00;99.90;;;;;;5093176;27;20043;-85
2022/07/13 06:19:45;;;;;;;8.93;6.20;;;21.00;99.90;;;;;;5094427;27;20486;-86
2022/07/13 06:22:11;;;;;;;8.10;6.30;;;21.40;99.90;;;;;;5092833;27;20096;-86
2022/07/13 06:24:37;;;;;;;6.03;5.20;;;21.20;99.90;;;;;;5094086;27;20130;-86
2022/07/13 06:27:03;;;;;;;6.78;6.07;;;21.20;99.90;;;;;;5076866;27;20043;-86
2022/07/13 06:29:29;;;;;;;6.43;5.60;;;21.30;99.90;;;;;;5109983;27;20100;-86
2022/07/13 06:31:54;;;;;;;7.45;6.00;;;21.40;99.90;;;;;;5111446;27;20132;-86
2022/07/13 06:34:20;;;;;;;9.60;6.55;;;21.50;99.90;;;;;;5076327;27;20599;-86
2022/07/13 06:36:46;;;;;;;8.30;5.93;;;21.60;99.90;;;;;;5077142;27;20050;-86
2022/07/13 06:39:11;;;;;;;12.63;6.65;;;21.70;99.90;;;;;;5075640;27;20494;-86
2022/07/13 06:41:37;;;;;;;9.57;6.22;;;21.70;99.90;;;;;;5110531;27;20047;-85
2022/07/13 06:44:03;;;;;;;8.02;6.63;;;21.70;99.90;;;;;;5109679;27;20043;-86
2022/07/13 06:46:29;;;;;;;8.20;6.72;;;21.70;99.90;;;;;;5093036;27;20040;-86
2022/07/13 06:48:54;;;;;;;10.02;6.72;;;21.60;99.90;;;;;;5076036;27;20051;-86
2022/07/13 06:51:20;;;;;;;9.27;6.05;;;21.60;99.90;;;;;;5076189;27;20079;-86
2022/07/13 06:53:46;;;;;;;8.02;5.60;;;21.60;99.90;;;;;;5076443;27;20470;-86
2022/07/13 06:56:11;;;;;;;9.40;6.00;;;21.60;99.90;;;;;;5075723;27;20046;-86
2022/07/13 06:58:37;;;;;;;8.93;6.32;;;21.80;99.90;;;;;;5060213;27;20043;-86
2022/07/13 07:01:04;;;;;;;12.50;6.95;;;21.90;99.90;;;;;;5109423;27;20043;-86
2022/07/13 07:03:30;;;;;;;10.00;6.40;;;22.00;99.90;;;;;;5076636;27;20091;-86
2022/07/13 07:05:56;;;;;;;8.48;6.40;;;22.10;99.90;;;;;;5110184;27;20486;-86
2022/07/13 07:08:22;;;;;;;10.88;7.13;;;22.30;99.90;;;;;;5081665;27;20394;-86
2022/07/13 07:10:48;;;;;;;15.57;6.95;;;22.40;99.90;;;;;;5121061;27;20082;-86
2022/07/13 07:13:16;;;;;;;11.93;6.78;;;22.60;99.90;;;;;;5092128;27;20116;-86
2022/07/13 07:15:42;;;;;;;8.75;5.72;;;22.70;99.90;;;;;;5110410;27;20172;-86
2022/07/13 07:18:08;;;;;;;10.20;5.55;;;22.80;99.90;;;;;;5092580;27;20518;-86
2022/07/13 07:20:34;;;;;;;9.52;5.60;;;23.00;99.90;;;;;;5109375;27;20122;-86
2022/07/13 07:23:00;;;;;;;11.45;5.18;;;23.00;99.90;;;;;;5075443;27;20042;-86
2022/07/13 07:25:26;;;;;;;7.70;4.97;;;23.10;99.90;;;;;;5109216;27;20135;-87
2022/07/13 07:27:52;;;;;;;7.30;4.35;;;23.10;99.90;;;;;;5092395;27;20116;-86
2022/07/13 07:30:18;;;;;;;10.30;5.00;;;23.20;99.90;;;;;;5074863;27;20047;-86
2022/07/13 07:32:44;;;;;;;11.15;5.75;;;23.20;99.90;;;;;;5076325;27;20039;-87
2022/07/13 07:35:10;;;;;;;10.13;5.35;;;23.40;99.90;;;;;;5108526;27;20426;-86
2022/07/13 07:37:38;;;;;;;9.05;6.47;;;23.40;99.90;;;;;;5075557;27;20051;-86
2022/07/13 07:40:06;;;;;;;9.50;6.32;;;23.50;99.90;;;;;;5091696;27;20043;-86
2022/07/13 07:42:32;;;;;;;10.90;5.75;;;23.60;99.90;;;;;;5108850;27;20051;-86
2022/07/13 07:45:00;;;;;;;8.60;5.53;;;23.60;99.90;;;;;;5109754;27;20039;-86
2022/07/13 07:47:26;;;;;;;11.85;7.28;;;23.70;99.90;;;;;;5108619;27;20039;-87
2022/07/13 07:49:52;;;;;;;13.88;7.45;;;23.80;99.90;;;;;;5059028;27;20054;-86
2022/07/13 07:52:19;;;;;;;8.90;7.07;;;23.80;99.90;;;;;;5058068;27;20043;-86
2022/07/13 07:54:46;;;;;;;11.13;7.47;;;23.90;99.90;;;;;;5091584;27;20043;-86
2022/07/13 07:57:12;;;;;;;10.65;8.20;;;24.00;99.90;;;;;;5108894;27;20054;-86
2022/07/13 07:59:38;;;;;;;12.70;8.05;;;24.20;99.90;;;;;;5091417;27;20043;-86
2022/07/13 08:02:03;;;;;;;11.27;7.95;;;24.20;99.90;;;;;;5109214;27;20137;-86
2022/07/13 08:04:29;;;;;;;10.50;8.45;;;24.30;99.90;;;;;;5058080;27;20085;-86
2022/07/13 08:06:55;;;;;;;11.90;8.18;;;24.30;99.90;;;;;;5091614;27;20035;-86
2022/07/13 08:09:23;;;;;;;9.68;7.18;;;24.40;99.90;;;;;;5090345;27;20043;-86
2022/07/13 08:11:49;;;;;;;9.45;5.95;;;24.40;99.90;;;;;;5074855;27;20049;-86
2022/07/13 08:14:19;;;;;;;14.73;7.43;;;24.50;99.90;;;;;;5108306;27;20051;-86
2022/07/13 08:16:44;;;;;;;10.43;7.03;;;24.60;99.90;;;;;;5091775;27;20545;-86
2022/07/13 08:19:10;;;;;;;12.32;7.05;;;24.70;99.90;;;;;;5091497;27;20501;-86
2022/07/13 08:21:36;;;;;;;10.95;6.90;;;24.70;99.90;;;;;;5107787;27;20088;-86
2022/07/13 08:24:02;;;;;;;12.63;7.03;;;24.80;99.90;;;;;;5075025;27;20054;-86
2022/07/13 08:26:29;;;;;;;9.27;5.40;;;24.80;99.90;;;;;;5090357;27;20031;-86
2022/07/13 08:28:57;;;;;;;9.52;6.25;;;24.90;99.90;;;;;;5107416;27;20075;-87
2022/07/13 08:31:24;;;;;;;12.35;6.00;;;25.00;99.90;;;;;;5090963;27;20047;-86
2022/07/13 08:39:20;;;;;;;7.65;4.57;;;25.40;99.90;;;;;;5107738;27;20047;-86
2022/07/13 08:41:47;;;;;;;9.57;4.68;;;25.50;99.90;;;;;;5091490;27;20039;-86
2022/07/13 08:44:13;;;;;;;6.72;5.03;;;25.60;99.90;;;;;;5090499;27;20078;-86
2022/07/13 08:46:39;;;;;;;9.63;5.32;;;25.70;99.90;;;;;;5126435;27;20073;-87
2022/07/13 08:49:06;;;;;;;7.75;4.38;;;25.80;99.90;;;;;;5107950;27;20039;-86
2022/07/13 08:51:33;;;;;;;5.82;3.53;;;25.80;99.90;;;;;;5090495;27;20510;-87
2022/07/13 08:54:07;;;;;;;6.90;3.72;;;25.90;99.90;;;;;;5108472;27;20054;-86
2022/07/13 08:56:33;;;;;;;6.10;3.47;;;26.00;99.90;;;;;;5106955;27;20340;-86
2022/07/13 08:59:00;;;;;;;6.93;4.00;;;26.10;99.90;;;;;;5090542;27;20679;-86
2022/07/13 09:01:26;;;;;;;5.35;3.17;;;26.20;99.90;;;;;;5090266;27;20482;-86
2022/07/13 09:03:52;;;;;;;6.95;3.63;;;26.20;99.90;;;;;;5090529;27;20049;-86
2022/07/13 09:06:39;;;;;;;5.78;3.60;;;26.40;99.90;;;;;;5109025;28;20095;-85
2022/07/13 09:09:06;;;;;;;6.40;4.10;;;26.50;99.90;;;;;;5127927;27;20047;-87
2022/07/13 09:11:32;;;;;;;8.02;3.67;;;26.50;99.90;;;;;;5108285;27;20054;-86
2022/07/13 09:13:58;;;;;;;7.20;3.10;;;26.60;99.90;;;;;;5106548;27;20050;-87
2022/07/13 09:16:26;;;;;;;4.43;3.17;;;26.60;99.90;;;;;;5106948;28;20035;-87
2022/07/13 09:18:55;;;;;;;6.45;3.97;;;26.80;99.90;;;;;;5090843;27;20563;-87
2022/07/13 09:21:23;;;;;;;5.38;3.53;;;26.90;99.90;;;;;;5089871;28;20563;-87
2022/07/13 09:23:59;;;;;;;4.18;2.80;;;26.90;99.90;;;;;;5091016;27;20047;-87
2022/07/13 09:26:42;;;;;;;5.78;3.17;;;27.00;99.90;;;;;;5089628;28;20122;-87
2022/07/13 09:29:08;;;;;;;4.10;3.15;;;27.10;99.90;;;;;;5073316;28;20184;-87
2022/07/13 09:31:55;;;;;;;4.38;3.20;;;27.20;99.90;;;;;;5107202;28;20054;-88
2022/07/13 09:34:51;;;;;;;3.55;2.80;;;27.30;99.90;;;;;;5106877;28;20154;-87
2022/07/13 09:37:22;;;;;;;3.15;1.65;;;27.40;99.70;;;;;;5107800;28;20083;-87
2022/07/13 09:40:07;;;;;;;4.15;1.88;;;27.40;99.90;;;;;;5110038;27;20078;-87
2022/07/13 09:42:38;;;;;;;4.28;2.28;;;27.50;97.50;;;;;;5078635;27;20521;-88
2022/07/13 09:47:53;;;;;;;3.35;2.00;;;27.60;97.50;;;;;;5096048;27;20434;-87
2022/07/13 09:50:21;;;;;;;4.85;2.75;;;27.60;97.90;;;;;;5077579;27;20043;-87
2022/07/13 09:52:47;;;;;;;4.85;3.05;;;27.60;98.20;;;;;;5110857;27;20047;-87
2022/07/13 09:55:19;;;;;;;4.13;3.63;;;27.70;97.40;;;;;;5077281;27;20566;-87
2022/07/13 09:57:52;;;;;;;4.90;3.00;;;27.70;96.60;;;;;;5094772;27;20391;-87
2022/07/13 10:00:20;;;;;;;6.55;3.72;;;27.70;94.10;;;;;;5077642;27;20339;-85
2022/07/13 10:02:47;;;;;;;3.85;2.58;;;27.70;96.20;;;;;;5094120;27;20039;-85
2022/07/13 10:05:17;;;;;;;5.50;3.15;;;27.80;96.10;;;;;;5110015;27;20051;-85
2022/07/13 10:07:45;;;;;;;5.03;2.58;;;27.80;96.40;;;;;;5094332;27;20109;-87
2022/07/13 10:10:16;;;;;;;3.22;2.00;;;27.90;95.20;;;;;;5111018;27;20086;-87
2022/07/13 10:12:43;;;;;;;3.07;1.47;;;28.00;92.00;;;;;;5094322;27;20554;-87
2022/07/13 10:15:11;;;;;;;2.95;1.25;;;27.90;92.20;;;;;;5060532;27;20498;-86
2022/07/13 10:17:38;;;;;;;1.58;0.98;;;27.90;90.40;;;;;;5093511;27;20042;-87
2022/07/13 10:20:21;;;;;;;4.20;1.50;;;27.90;89.40;;;;;;5111797;27;20085;-87
2022/07/13 10:22:48;;;;;;;2.45;1.02;;;27.90;84.90;;;;;;5110834;27;20505;-86
2022/07/13 10:25:15;;;;;;;2.25;1.33;;;27.90;86.60;;;;;;5110921;27;20055;-87
2022/07/13 10:27:41;;;;;;;2.47;1.10;;;28.00;85.30;;;;;;5110589;27;20045;-87
2022/07/13 10:30:20;;;;;;;2.65;1.30;;;28.00;83.60;;;;;;5076615;27;20062;-87
2022/07/13 10:32:46;;;;;;;2.10;1.30;;;28.00;80.80;;;;;;5111182;27;20047;-87
2022/07/13 10:35:17;;;;;;;3.45;1.13;;;28.00;81.80;;;;;;5076689;27;20043;-87
2022/07/13 10:38:01;;;;;;;1.73;0.88;;;28.00;78.40;;;;;;5095113;27;20054;-87
2022/07/13 10:40:31;;;;;;;6.00;1.17;;;28.10;73.10;;;;;;5093215;27;20039;-86
2022/07/13 10:42:57;;;;;;;2.25;1.25;;;28.10;76.80;;;;;;5093411;27;20043;-83
2022/07/13 10:45:38;;;;;;;2.08;1.23;;;28.20;77.60;;;;;;5093622;27;20039;-85
2022/07/13 10:48:22;;;;;;;1.05;0.75;;;28.30;76.50;;;;;;5109576;27;20047;-87
2022/07/13 10:50:53;;;;;;;2.38;1.20;;;28.40;76.60;;;;;;5093262;27;20047;-85
2022/07/13 10:53:19;;;;;;;4.95;1.30;;;28.50;77.90;;;;;;5111280;27;20066;-85
2022/07/13 10:55:49;;;;;;;3.20;1.23;;;28.50;79.00;;;;;;5093235;27;20043;-86
2022/07/13 10:58:33;;;;;;;3.47;1.17;;;28.50;77.60;;;;;;5094245;27;20147;-86
2022/07/13 11:01:00;;;;;;;1.63;0.90;;;28.50;72.70;;;;;;5093061;27;20043;-88
2022/07/13 11:03:35;;;;;;;2.10;0.90;;;28.40;74.00;;;;;;5094998;27;20091;-86
2022/07/13 11:06:09;;;;;;;3.35;1.30;;;28.40;71.80;;;;;;5114189;27;20090;-86
2022/07/13 11:08:35;;;;;;;1.27;1.08;;;28.40;71.50;;;;;;5080006;27;20054;-85
2022/07/13 11:11:17;;;;;;;1.55;1.00;;;28.40;72.60;;;;;;5130417;27;20039;-86
2022/07/13 11:13:44;;;;;;;2.78;1.17;;;28.50;76.50;;;;;;5092649;27;20059;-88
2022/07/13 11:16:31;;;;;;;2.00;1.10;;;28.50;73.90;;;;;;5077039;27;20054;-88
2022/07/13 11:18:59;;;;;;;2.17;0.93;;;28.50;72.70;;;;;;5109787;27;20274;-88
2022/07/13 11:21:24;;;;;;;2.55;0.63;;;28.40;71.50;;;;;;5075990;27;20134;-85
2022/07/13 11:26:52;;;;;;;1.90;1.30;;;28.40;71.10;;;;;;5109162;27;20051;-86
2022/07/13 11:29:55;;;;;;;3.08;1.35;;;28.50;72.50;;;;;;5092514;27;20081;-86
2022/07/13 11:32:21;;;;;;;3.97;1.30;;;28.50;73.00;;;;;;5089394;27;20500;-86
2022/07/13 11:34:47;;;;;;;1.33;0.90;;;28.50;76.20;;;;;;5092103;27;20382;-85
2022/07/13 11:37:13;;;;;;;2.95;0.88;;;28.40;75.90;;;;;;5093615;27;20047;-89
2022/07/13 11:39:40;;;;;;;2.22;1.20;;;28.30;75.10;;;;;;5077660;27;20469;-89
2022/07/13 11:42:07;;;;;;;2.25;1.10;;;28.20;75.20;;;;;;5078108;27;20039;-89
2022/07/13 11:44:34;;;;;;;1.83;0.95;;;28.20;76.70;;;;;;5112095;27;20043;-88
2022/07/13 11:47:06;;;;;;;2.33;0.93;;;28.20;77.70;;;;;;5099780;27;20130;-89
2022/07/13 11:49:52;;;;;;;2.72;0.93;;;28.10;77.20;;;;;;5085165;27;20554;-89
2022/07/13 11:52:23;;;;;;;4.70;1.45;;;28.00;78.70;;;;;;5100853;27;20047;-89
2022/07/13 11:54:57;;;;;;;1.67;1.10;;;27.80;82.30;;;;;;5118998;27;20188;-89
2022/07/13 11:57:23;;;;;;;5.28;0.93;;;27.90;86.60;;;;;;5100626;27;20138;-89
2022/07/13 11:59:49;;;;;;;2.58;0.80;;;27.80;87.60;;;;;;5120133;27;20075;-93
2022/07/13 12:02:15;;;;;;;2.30;0.90;;;27.90;88.50;;;;;;5081442;27;20406;-89
2022/07/13 12:04:42;;;;;;;2.92;1.02;;;27.90;89.60;;;;;;5077448;27;20050;-90
2022/07/13 12:07:18;;;;;;;2.45;0.95;;;28.10;90.00;;;;;;5094251;27;20039;-91
2022/07/13 12:10:01;;;;;;;1.83;0.88;;;28.10;90.10;;;;;;5109359;27;20130;-91
2022/07/13 12:12:34;;;;;;;1.90;0.95;;;28.00;89.00;;;;;;5109174;27;20043;-92
2022/07/13 12:15:00;;;;;;;3.53;1.33;;;28.10;91.70;;;;;;5093344;27;20047;-90
2022/07/13 12:17:27;;;;;;;2.80;1.23;;;28.10;90.60;;;;;;5075230;27;20084;-92
2022/07/13 12:20:13;;;;;;;3.67;1.00;;;28.10;91.50;;;;;;5093717;27;20046;-90
2022/07/13 12:22:39;;;;;;;3.47;0.90;;;27.90;90.50;;;;;;5108824;27;20092;-89
2022/07/13 12:25:06;;;;;;;2.95;1.15;;;27.80;91.40;;;;;;5091721;27;20440;-89
2022/07/13 12:27:33;;;;;;;5.13;2.22;;;27.70;91.00;;;;;;5092243;27;20088;-90
2022/07/13 12:30:11;;;;;;;3.33;1.60;;;27.60;91.70;;;;;;5074647;27;20484;-90
2022/07/13 12:32:56;;;;;;;4.28;1.30;;;27.40;93.00;;;;;;5092553;27;20058;-91
2022/07/13 12:35:28;;;;;;;6.28;1.40;;;27.30;94.50;;;;;;5073854;27;20490;-90
2022/07/13 12:37:54;;;;;;;;;;;27.30;94.70;;;;;;5075066;27;20058;-85
2022/07/13 12:40:38;;;;;;;4.43;1.42;;;27.40;95.30;;;;;;5108235;27;19926;-87
2022/07/13 12:43:04;;;;;;;7.35;1.40;;;27.40;95.50;;;;;;5108107;27;20562;-87
2022/07/13 12:45:31;;;;;;;3.33;1.27;;;27.40;95.30;;;;;;5127557;27;20043;-88
2022/07/13 12:47:57;;;;;;;5.97;1.67;;;27.30;95.20;;;;;;5073322;27;20122;-87
2022/07/13 12:50:30;;;;;;;3.90;1.35;;;27.40;95.80;;;;;;5091913;27;20086;-88
2022/07/13 12:53:02;;;;;;;4.15;1.25;;;27.30;95.50;;;;;;5108662;27;20390;-87
2022/07/13 12:55:28;;;;;;;5.95;1.45;;;27.20;96.30;;;;;;5090732;27;20046;-86
2022/07/13 12:57:54;;;;;;;4.38;1.35;;;27.10;95.90;;;;;;5075489;27;20051;-86
2022/07/13 13:00:27;;;;;;;4.22;1.25;;;27.20;96.50;;;;;;5076568;27;20130;-86